Time;durP1;ratioP1;P1;durP2;ratioP2;P2;SDS_P1;SDS_P2;PMS_P1;PMS_P2;Temp;Humidity;BMP_temperature;BMP_pressure;BME280_temperature;BME280_humidity;BME280_pressure;Samples;Min_cycle;Max_cycle;Signal;HPM_P1;HPM_P2
2022/08/03 00:01:02;;;;;;;6.55;5.95;;;;;;;15.28;78.77;95817.09;1779336;81;21019;-66
2022/08/03 00:03:28;;;;;;;6.33;5.80;;;;;;;15.28;78.46;95819.75;1780103;80;20986;-66
2022/08/03 00:05:55;;;;;;;6.25;5.75;;;;;;;15.29;78.96;95815.70;1784859;80;21042;-66
2022/08/03 00:08:22;;;;;;;6.95;6.25;;;;;;;15.23;78.51;95811.93;1784733;80;21003;-66
2022/08/03 00:10:49;;;;;;;5.90;5.40;;;;;;;15.23;78.49;95801.77;1784593;80;21455;-66
2022/08/03 00:13:16;;;;;;;6.80;5.40;;;;;;;15.21;78.12;95804.45;1785016;80;21490;-66
2022/08/03 00:15:43;;;;;;;6.70;5.83;;;;;;;15.21;78.28;95800.94;1784952;80;21002;-66
2022/08/03 00:18:09;;;;;;;7.05;5.83;;;;;;;15.17;78.50;95796.20;1784914;80;21487;-66
2022/08/03 00:20:36;;;;;;;6.85;5.70;;;;;;;15.12;79.44;95800.33;1784618;80;21002;-66
2022/08/03 00:23:04;;;;;;;6.90;6.20;;;;;;;15.08;79.60;95804.47;1785075;80;21027;-66
2022/08/03 00:25:32;;;;;;;6.53;5.92;;;;;;;15.10;79.58;95799.97;1784844;80;21612;-66
2022/08/03 00:27:59;;;;;;;6.28;5.67;;;;;;;15.18;79.07;95803.70;1784623;80;20991;-66
2022/08/03 00:30:26;;;;;;;6.50;5.90;;;;;;;15.21;78.34;95808.91;1784908;80;21046;-66
2022/08/03 00:32:52;;;;;;;6.47;5.85;;;;;;;15.20;78.54;95800.55;1784963;80;20986;-66
2022/08/03 00:35:19;;;;;;;6.20;5.45;;;;;;;15.28;78.38;95799.81;1784705;80;21003;-66
2022/08/03 00:37:46;;;;;;;6.95;6.25;;;;;;;15.24;77.94;95791.52;1785034;80;21106;-66
2022/08/03 00:40:15;;;;;;;7.65;6.12;;;;;;;15.09;78.70;95789.81;1784919;80;20975;-66
2022/08/03 00:42:55;;;;;;;6.45;5.92;;;;;;;14.98;79.24;95791.94;1784760;80;21006;-66
2022/08/03 00:45:32;;;;;;;6.80;6.00;;;;;;;15.01;79.40;95789.17;1784384;80;21066;-66
2022/08/03 00:48:00;;;;;;;5.72;5.22;;;;;;;14.98;78.91;95793.27;1784520;80;21070;-66
2022/08/03 00:50:30;;;;;;;7.42;6.50;;;;;;;14.90;78.79;95794.84;1784507;80;20948;-66
2022/08/03 00:52:59;;;;;;;7.47;6.55;;;;;;;14.83;79.18;95790.64;1785076;80;20951;-66
2022/08/03 00:55:25;;;;;;;6.83;6.22;;;;;;;14.90;79.23;95787.34;1785031;80;20967;-66
2022/08/03 00:57:53;;;;;;;8.13;7.05;;;;;;;14.88;80.14;95799.33;1784537;80;21003;-66
2022/08/03 01:00:23;;;;;;;7.83;7.08;;;;;;;14.86;79.53;95794.52;1784687;80;21539;-66
2022/08/03 01:02:51;;;;;;;7.42;6.42;;;;;;;14.83;79.31;95792.44;1784866;80;21015;-66
2022/08/03 01:05:20;;;;;;;7.35;6.65;;;;;;;14.81;79.22;95792.94;1784594;80;21019;-66
2022/08/03 01:08:07;;;;;;;8.00;6.72;;;;;;;14.71;79.41;95795.88;1784724;80;21039;-66
2022/08/03 01:11:00;;;;;;;6.62;6.03;;;;;;;14.55;79.16;95798.61;1784343;80;21022;-66
2022/08/03 01:13:30;;;;;;;;;;;;;;;14.40;80.54;95800.38;1787182;80;21026;-66
2022/08/03 01:16:20;;;;;;;7.00;6.20;;;;;;;14.37;80.69;95799.16;1784905;80;20398;-66
2022/08/03 01:19:20;;;;;;;7.40;6.70;;;;;;;14.36;80.40;95800.91;1783061;80;21015;-66
2022/08/03 01:22:01;;;;;;;7.12;6.42;;;;;;;14.38;80.79;95797.76;1783685;80;21544;-66
2022/08/03 01:24:44;;;;;;;7.60;6.90;;;;;;;14.39;81.29;95794.20;1783366;80;20983;-66
2022/08/03 01:27:20;;;;;;;;;;;;;;;14.41;80.75;95799.02;1712190;80;21078;-66
2022/08/03 01:30:02;;;;;;;7.40;6.72;;;;;;;14.42;80.53;95796.77;1784983;80;20105;-66
2022/08/03 01:32:49;;;;;;;10.40;7.22;;;;;;;14.43;80.21;95809.57;1784743;80;21531;-66
2022/08/03 01:35:26;;;;;;;9.53;6.50;;;;;;;14.36;80.34;95802.70;1784985;80;20991;-66
2022/08/03 01:38:00;;;;;;;6.78;6.17;;;;;;;14.33;80.82;95808.97;1783833;80;21030;-66
2022/08/03 01:40:29;;;;;;;6.70;6.08;;;;;;;14.28;81.68;95805.12;1784950;80;21015;-66
2022/08/03 01:42:58;;;;;;;6.83;6.03;;;;;;;14.24;80.93;95802.17;1784811;80;21114;-66
2022/08/03 01:45:27;;;;;;;7.37;6.12;;;;;;;14.20;80.79;95804.95;1784772;80;21018;-66
2022/08/03 01:47:55;;;;;;;6.65;5.75;;;;;;;14.13;81.55;95800.73;1785071;80;20971;-66
2022/08/03 01:50:27;;;;;;;6.60;5.85;;;;;;;14.12;81.00;95806.50;1785045;80;21014;-66
2022/08/03 01:52:55;;;;;;;7.25;6.55;;;;;;;14.16;81.28;95801.96;1785006;80;21038;-66
2022/08/03 01:55:26;;;;;;;8.03;6.12;;;;;;;14.26;80.79;95799.02;1784969;80;21496;-66
2022/08/03 01:57:55;;;;;;;6.95;6.25;;;;;;;14.36;80.73;95786.77;1784947;80;21065;-66
2022/08/03 02:00:24;;;;;;;7.67;6.85;;;;;;;14.41;80.88;95796.36;1784914;80;20955;-66
2022/08/03 02:02:54;;;;;;;7.15;6.45;;;;;;;14.47;81.21;95795.30;1785071;80;21053;-66
2022/08/03 02:05:22;;;;;;;6.20;5.40;;;;;;;14.38;80.18;95788.93;1784875;80;21026;-66
2022/08/03 02:07:50;;;;;;;6.35;5.75;;;;;;;14.33;80.48;95788.20;1784473;80;21067;-66
2022/08/03 02:10:19;;;;;;;9.00;6.60;;;;;;;14.25;80.40;95776.03;1785043;80;20995;-66
2022/08/03 02:12:49;;;;;;;6.90;5.72;;;;;;;14.27;80.71;95778.65;1784910;80;21039;-66
2022/08/03 02:15:18;;;;;;;6.75;5.90;;;;;;;14.33;80.52;95778.91;1784971;80;21022;-66
2022/08/03 02:17:47;;;;;;;6.65;5.92;;;;;;;14.26;80.02;95774.23;1784931;80;21000;-66
2022/08/03 02:20:15;;;;;;;6.10;5.60;;;;;;;14.20;80.10;95780.60;1785050;80;21018;-66
2022/08/03 02:22:44;;;;;;;6.65;6.00;;;;;;;14.15;80.33;95777.22;1784907;80;21026;-66
2022/08/03 02:25:13;;;;;;;6.60;6.00;;;;;;;14.05;81.62;95785.90;1785018;80;21018;-66
2022/08/03 02:27:47;;;;;;;5.85;5.35;;;;;;;14.09;81.92;95778.73;1784849;80;21054;-66
2022/08/03 02:30:14;;;;;;;6.83;6.20;;;;;;;14.11;81.27;95774.70;1784335;80;21572;-66
2022/08/03 02:32:46;;;;;;;6.03;5.53;;;;;;;14.10;81.20;95771.64;1785054;80;21002;-66
2022/08/03 02:35:16;;;;;;;6.83;5.85;;;;;;;14.07;80.28;95774.80;1785285;80;21018;-66
2022/08/03 02:37:51;;;;;;;6.55;5.95;;;;;;;14.03;81.36;95772.27;1784684;80;21013;-66
2022/08/03 02:40:21;;;;;;;7.03;6.33;;;;;;;14.08;81.21;95776.98;1785066;80;21010;-66
2022/08/03 02:42:52;;;;;;;5.97;5.22;;;;;;;14.14;81.15;95774.16;1784945;80;21022;-66
2022/08/03 02:45:20;;;;;;;6.05;5.47;;;;;;;14.10;80.65;95780.93;1785059;80;21058;-66
2022/08/03 02:47:47;;;;;;;6.20;5.30;;;;;;;14.05;80.39;95780.59;1784903;80;21043;-66
2022/08/03 02:50:16;;;;;;;6.35;5.75;;;;;;;13.98;80.60;95779.49;1784920;80;21046;-66
2022/08/03 02:52:46;;;;;;;7.50;5.65;;;;;;;13.93;81.19;95781.41;1784789;80;21003;-66
2022/08/03 02:55:15;;;;;;;6.87;6.12;;;;;;;13.90;81.06;95778.85;1785125;80;21536;-66
2022/08/03 02:57:44;;;;;;;8.50;6.05;;;;;;;13.85;80.77;95779.84;1784880;80;21059;-66
2022/08/03 03:00:13;;;;;;;6.28;5.78;;;;;;;13.83;81.44;95781.69;1785295;80;20998;-66
2022/08/03 03:02:40;;;;;;;6.62;6.08;;;;;;;13.86;81.08;95787.37;1784840;80;21042;-66
2022/08/03 03:05:10;;;;;;;7.28;6.25;;;;;;;13.87;80.85;95785.11;1784854;80;20979;-66
2022/08/03 03:07:37;;;;;;;6.42;5.70;;;;;;;13.91;80.57;95786.78;1784799;80;21453;-65
2022/08/03 03:10:05;;;;;;;9.35;6.80;;;;;;;13.93;80.91;95792.88;1784837;80;21037;-66
2022/08/03 03:12:35;;;;;;;6.03;5.28;;;;;;;13.93;80.70;95788.04;1784881;80;21034;-66
2022/08/03 03:15:05;;;;;;;5.20;4.80;;;;;;;13.99;80.42;95784.77;1785016;80;21006;-66
2022/08/03 03:17:34;;;;;;;6.37;4.70;;;;;;;13.89;79.88;95786.41;1784754;80;21038;-66
2022/08/03 03:20:02;;;;;;;6.40;5.67;;;;;;;13.79;80.33;95786.66;1785006;80;21030;-66
2022/08/03 03:22:32;;;;;;;5.87;5.37;;;;;;;13.81;80.85;95783.98;1785011;80;21071;-66
2022/08/03 03:25:00;;;;;;;5.70;5.20;;;;;;;13.78;81.60;95787.59;1785016;80;21046;-66
2022/08/03 03:27:27;;;;;;;8.78;6.10;;;;;;;13.76;80.63;95789.87;1785015;80;20986;-66
2022/08/03 03:29:54;;;;;;;9.30;6.60;;;;;;;13.79;80.56;95789.31;1784874;80;21015;-66
2022/08/03 03:32:21;;;;;;;8.00;6.08;;;;;;;13.79;80.58;95785.80;1784986;80;21062;-66
2022/08/03 03:34:49;;;;;;;7.03;6.42;;;;;;;13.81;80.94;95787.95;1785074;80;21468;-66
2022/08/03 03:37:16;;;;;;;6.87;6.05;;;;;;;13.83;80.80;95784.77;1784817;80;21034;-66
2022/08/03 03:39:43;;;;;;;9.70;6.72;;;;;;;13.84;80.78;95794.03;1784644;80;21093;-66
2022/08/03 03:42:10;;;;;;;7.60;6.90;;;;;;;13.80;80.79;95800.31;1784887;80;21006;-66
2022/08/03 03:44:36;;;;;;;7.00;6.33;;;;;;;13.83;80.96;95797.61;1784894;80;21070;-66
2022/08/03 03:47:03;;;;;;;7.08;6.47;;;;;;;13.77;81.35;95795.57;1784712;80;21015;-66
2022/08/03 03:49:31;;;;;;;7.05;6.45;;;;;;;13.66;81.10;95801.18;1784949;80;21011;-66
2022/08/03 03:51:57;;;;;;;6.95;6.35;;;;;;;13.62;80.91;95798.19;1784760;80;21067;-66
2022/08/03 03:54:24;;;;;;;8.68;6.60;;;;;;;13.58;80.49;95796.52;1785105;80;20990;-66
2022/08/03 03:56:51;;;;;;;7.17;5.42;;;;;;;13.66;81.46;95806.48;1784945;80;21030;-66
2022/08/03 03:59:18;;;;;;;8.10;7.40;;;;;;;13.68;81.96;95805.09;1784968;80;21058;-66
2022/08/03 04:01:45;;;;;;;11.80;7.85;;;;;;;13.71;81.66;95810.30;1784631;80;21026;-66
2022/08/03 04:12:11;;;;;;;37.50;25.30;;;;;;;13.77;82.18;95817.65;1784896;80;20983;-66
2022/08/03 04:14:39;;;;;;;28.47;18.67;;;;;;;13.87;83.36;95823.57;1784710;80;21019;-66
2022/08/03 04:17:10;;;;;;;22.32;16.10;;;;;;;13.97;83.94;95821.08;1784917;80;20983;-66
2022/08/03 04:19:45;;;;;;;16.05;13.50;;;;;;;14.10;83.75;95820.27;1758741;80;21469;-66
2022/08/03 04:22:17;;;;;;;18.87;14.60;;;;;;;14.26;83.29;95821.58;1784785;80;21057;-66
2022/08/03 04:25:03;;;;;;;13.22;10.95;;;;;;;14.46;82.62;95825.40;1785061;80;21049;-66
2022/08/03 04:27:36;;;;;;;10.65;8.60;;;;;;;14.61;82.33;95824.10;1784895;80;21006;-66
2022/08/03 04:30:06;;;;;;;8.65;7.08;;;;;;;14.76;82.00;95822.30;1784984;80;21473;-66
2022/08/03 04:32:35;;;;;;;7.62;6.83;;;;;;;14.93;81.65;95831.07;1758872;80;21030;-66
2022/08/03 04:35:02;;;;;;;7.37;6.20;;;;;;;15.06;81.22;95831.55;1785034;80;21014;-66
2022/08/03 04:37:42;;;;;;;10.53;6.80;;;;;;;15.17;80.71;95828.09;1784667;80;21489;-66
2022/08/03 04:40:13;;;;;;;7.42;6.65;;;;;;;15.28;80.58;95827.27;1784743;80;21018;-66
2022/08/03 04:42:42;;;;;;;8.33;6.67;;;;;;;15.30;80.48;95825.89;1784899;80;20959;-66
2022/08/03 04:45:12;;;;;;;6.55;5.95;;;;;;;15.42;80.41;95824.59;1784958;80;21525;-66
2022/08/03 04:47:39;;;;;;;7.53;6.83;;;;;;;15.52;79.76;95825.58;1784889;80;21022;-66
2022/08/03 04:50:08;;;;;;;7.58;6.30;;;;;;;15.62;79.80;95825.24;1784817;80;21493;-66
2022/08/03 04:52:36;;;;;;;6.47;5.72;;;;;;;15.69;79.66;95829.00;1758272;80;21776;-66
2022/08/03 04:55:04;;;;;;;7.58;6.05;;;;;;;15.86;79.77;95821.77;1784385;80;21026;-66
2022/08/03 04:57:31;;;;;;;6.42;5.92;;;;;;;16.01;78.58;95825.67;1784899;80;21484;-66
2022/08/03 04:59:57;;;;;;;6.75;6.15;;;;;;;16.14;78.90;95828.28;1785015;80;20999;-66
2022/08/03 05:02:24;;;;;;;9.50;6.10;;;;;;;16.29;78.86;95837.97;1784755;80;20987;-66
2022/08/03 05:04:51;;;;;;;6.25;5.65;;;;;;;16.45;78.57;95832.45;1784597;80;21145;-66
2022/08/03 05:07:18;;;;;;;6.47;5.67;;;;;;;16.61;77.92;95829.63;1784823;80;21010;-66
2022/08/03 05:09:45;;;;;;;6.22;5.62;;;;;;;16.75;77.50;95833.55;1784811;80;21007;-66
2022/08/03 05:12:11;;;;;;;6.58;5.78;;;;;;;16.85;77.05;95829.15;1784825;80;21536;-66
2022/08/03 05:14:39;;;;;;;7.25;6.55;;;;;;;16.96;77.05;95836.74;1784673;80;21022;-66
2022/08/03 05:17:06;;;;;;;6.45;5.85;;;;;;;17.13;76.90;95824.52;1784790;80;20991;-66
2022/08/03 05:19:33;;;;;;;6.87;6.17;;;;;;;17.13;76.90;95824.52;1785008;80;21045;-66
2022/08/03 05:22:00;;;;;;;7.30;6.70;;;;;;;17.12;76.75;95823.66;1784925;80;20999;-66
2022/08/03 05:24:26;;;;;;;8.38;6.12;;;;;;;17.26;77.02;95829.30;1785071;80;21050;-66
2022/08/03 05:26:53;;;;;;;6.60;5.95;;;;;;;17.34;75.84;95828.98;1784755;80;20979;-66
2022/08/03 05:29:20;;;;;;;6.75;6.15;;;;;;;17.41;75.99;95827.80;1785013;80;20990;-66
2022/08/03 05:31:47;;;;;;;6.78;6.17;;;;;;;17.55;75.42;95832.55;1784734;80;21054;-66
2022/08/03 05:34:13;;;;;;;7.05;6.35;;;;;;;17.70;75.74;95823.02;1785080;80;21524;-66
2022/08/03 05:36:40;;;;;;;6.70;6.03;;;;;;;17.87;74.93;95831.68;1784782;80;21088;-66
2022/08/03 05:39:07;;;;;;;6.72;6.03;;;;;;;17.85;73.74;95830.40;1784812;80;21022;-66
2022/08/03 05:41:34;;;;;;;6.22;5.72;;;;;;;17.88;73.83;95824.06;1785106;80;20984;-66
2022/08/03 05:44:01;;;;;;;8.25;5.40;;;;;;;17.97;72.59;95829.01;1785095;80;21047;-66
2022/08/03 05:46:28;;;;;;;6.20;5.08;;;;;;;18.08;73.21;95825.38;1784729;80;21035;-66
2022/08/03 05:48:55;;;;;;;6.80;5.42;;;;;;;18.22;73.07;95830.56;1785050;80;21473;-66
2022/08/03 05:51:21;;;;;;;6.10;5.60;;;;;;;18.33;72.40;95827.81;1784692;80;21552;-66
2022/08/03 05:53:48;;;;;;;6.12;5.62;;;;;;;18.47;71.76;95830.31;1784847;80;20994;-66
2022/08/03 05:56:15;;;;;;;6.35;5.22;;;;;;;18.63;71.81;95831.84;1785262;80;20995;-66
2022/08/03 05:58:46;;;;;;;6.30;5.15;;;;;;;18.79;71.88;95839.08;1784962;80;21053;-66
2022/08/03 06:01:13;;;;;;;5.20;4.70;;;;;;;18.91;70.74;95840.31;1785045;80;21066;-66
2022/08/03 06:03:40;;;;;;;5.50;5.00;;;;;;;19.06;70.96;95834.70;1784976;80;21455;-66
2022/08/03 06:06:07;;;;;;;5.00;4.60;;;;;;;19.19;70.76;95831.82;1781651;80;21054;-66
2022/08/03 06:08:34;;;;;;;5.22;4.80;;;;;;;19.35;70.37;95829.28;1779322;81;20983;-66
2022/08/03 06:11:00;;;;;;;5.60;4.87;;;;;;;19.52;70.53;95828.90;1779561;80;21030;-66
2022/08/03 06:13:27;;;;;;;4.78;4.40;;;;;;;19.65;70.47;95824.20;1779485;81;20990;-66
2022/08/03 06:15:54;;;;;;;4.90;4.50;;;;;;;19.81;70.04;95827.47;1779527;81;21015;-66
2022/08/03 06:18:21;;;;;;;5.90;4.95;;;;;;;19.97;69.88;95824.37;1779328;80;21106;-66
2022/08/03 06:20:47;;;;;;;4.87;4.47;;;;;;;20.14;69.47;95834.22;1779161;81;21569;-67
2022/08/03 06:23:14;;;;;;;6.30;5.05;;;;;;;20.30;69.01;95829.77;1779523;80;21035;-66
2022/08/03 06:25:41;;;;;;;5.00;4.50;;;;;;;20.46;67.96;95827.60;1751292;81;21039;-66
2022/08/03 06:28:08;;;;;;;5.45;4.92;;;;;;;20.61;66.89;95833.98;1779417;81;21003;-66
2022/08/03 06:30:35;;;;;;;5.30;4.90;;;;;;;20.77;66.32;95830.02;1779788;81;21007;-66
2022/08/03 06:33:01;;;;;;;5.92;5.28;;;;;;;20.88;63.99;95828.92;1779365;81;20975;-66
2022/08/03 06:35:28;;;;;;;6.55;4.87;;;;;;;21.02;64.59;95838.91;1779636;81;20995;-66
2022/08/03 06:37:55;;;;;;;7.80;5.65;;;;;;;21.16;63.63;95836.29;1779115;81;21158;-66
2022/08/03 06:40:29;;;;;;;5.75;5.20;;;;;;;21.31;64.18;95832.73;1779264;81;21042;-66
2022/08/03 06:42:52;;;;;;;6.58;5.45;;;;;;;21.43;61.97;95837.91;1778609;81;21074;-67
2022/08/03 06:45:19;;;;;;;8.20;5.75;;;;;;;21.49;60.95;95831.31;1779571;81;21042;-66
2022/08/03 06:47:45;;;;;;;7.70;6.42;;;;;;;21.59;61.30;95828.48;1779072;81;21071;-66
2022/08/03 06:50:12;;;;;;;6.08;5.53;;;;;;;21.75;61.13;95828.47;1779539;80;21481;-67
2022/08/03 06:52:39;;;;;;;6.40;5.53;;;;;;;21.90;61.60;95826.21;1779390;80;21050;-67
2022/08/03 06:55:07;;;;;;;6.25;5.65;;;;;;;22.04;60.73;95825.37;1779331;81;21005;-66
2022/08/03 06:57:33;;;;;;;6.50;5.67;;;;;;;22.14;58.30;95825.20;1779801;80;21536;-66
2022/08/03 07:00:01;;;;;;;7.03;4.80;;;;;;;22.25;60.18;95823.22;1779663;81;21043;-66
2022/08/03 07:02:28;;;;;;;5.75;5.05;;;;;;;22.36;58.75;95829.31;1779410;81;21057;-67
2022/08/03 07:04:56;;;;;;;6.42;5.65;;;;;;;22.43;58.24;95822.11;1779575;81;20972;-66
2022/08/03 07:07:22;;;;;;;5.95;5.35;;;;;;;22.53;59.04;95826.44;1779120;80;21512;-66
2022/08/03 07:09:49;;;;;;;7.12;5.62;;;;;;;22.63;57.99;95823.56;1779322;81;21477;-66
2022/08/03 07:12:16;;;;;;;8.15;5.35;;;;;;;22.75;57.34;95820.55;1779725;80;21019;-66
2022/08/03 07:14:43;;;;;;;7.12;5.20;;;;;;;22.80;54.78;95821.62;1779200;81;21063;-66
2022/08/03 07:17:10;;;;;;;9.00;5.00;;;;;;;22.92;56.92;95818.64;1779330;81;21540;-66
2022/08/03 07:19:37;;;;;;;4.80;4.40;;;;;;;23.05;56.82;95812.38;1779658;80;20982;-66
2022/08/03 07:22:03;;;;;;;6.87;4.40;;;;;;;23.15;55.70;95812.66;1779421;81;20994;-66
2022/08/03 07:24:30;;;;;;;5.37;4.00;;;;;;;23.27;54.01;95811.00;1779408;80;21484;-66
2022/08/03 07:26:57;;;;;;;3.00;2.70;;;;;;;23.39;52.37;95810.20;1779083;81;21022;-66
2022/08/03 07:29:23;;;;;;;3.85;3.17;;;;;;;23.51;48.81;95813.89;1779315;81;21440;-66
2022/08/03 07:31:50;;;;;;;2.45;1.90;;;;;;;23.60;48.03;95808.39;1779468;81;20999;-66
2022/08/03 07:34:17;;;;;;;2.77;2.58;;;;;;;23.72;44.79;95807.11;1779470;81;21041;-66
2022/08/03 07:36:43;;;;;;;2.92;2.67;;;;;;;23.79;44.88;95808.03;1779313;81;21011;-66
2022/08/03 07:39:10;;;;;;;3.37;3.05;;;;;;;23.91;45.99;95807.20;1779237;81;21051;-66
2022/08/03 07:41:37;;;;;;;3.75;3.37;;;;;;;24.13;46.97;95807.95;1779511;81;21002;-66
2022/08/03 07:44:04;;;;;;;3.20;2.65;;;;;;;24.34;46.70;95801.08;1779430;81;20974;-66
2022/08/03 07:46:32;;;;;;;3.85;2.77;;;;;;;24.55;46.28;95807.31;1751032;81;21098;-66
2022/08/03 07:48:58;;;;;;;2.98;2.70;;;;;;;24.70;45.73;95804.88;1779485;81;20986;-67
2022/08/03 07:51:25;;;;;;;3.02;2.75;;;;;;;24.83;45.21;95806.20;1779157;81;21549;-66
2022/08/03 07:53:52;;;;;;;2.85;2.65;;;;;;;24.99;45.51;95810.86;1778941;81;21091;-66
2022/08/03 07:56:20;;;;;;;4.45;2.77;;;;;;;25.10;41.78;95810.09;1779399;81;21425;-66
2022/08/03 07:58:46;;;;;;;3.17;2.60;;;;;;;25.18;43.64;95810.42;1779282;81;21484;-66
2022/08/03 08:01:13;;;;;;;5.80;2.92;;;;;;;25.29;44.16;95812.33;1779386;81;20995;-66
2022/08/03 08:03:40;;;;;;;4.22;3.02;;;;;;;25.28;41.72;95807.92;1779276;80;21019;-66
2022/08/03 08:06:07;;;;;;;2.55;2.35;;;;;;;25.32;42.23;95815.29;1780841;80;21002;-66
2022/08/03 08:08:34;;;;;;;4.03;2.90;;;;;;;25.25;40.71;95806.30;1784768;80;21007;-66
2022/08/03 08:11:00;;;;;;;2.90;2.70;;;;;;;25.30;41.72;95803.27;1784799;80;21066;-66
2022/08/03 08:13:27;;;;;;;5.12;2.67;;;;;;;25.40;42.32;95811.06;1785164;80;21014;-67
2022/08/03 08:15:54;;;;;;;4.50;2.85;;;;;;;25.61;43.57;95808.59;1784686;80;21031;-66
2022/08/03 08:18:20;;;;;;;4.30;2.50;;;;;;;25.72;40.22;95810.48;1784824;80;21017;-66
2022/08/03 08:20:47;;;;;;;2.55;2.35;;;;;;;25.82;41.09;95808.80;1784964;80;20987;-66
2022/08/03 08:23:13;;;;;;;4.67;3.10;;;;;;;25.95;41.72;95808.76;1784570;80;21117;-66
2022/08/03 08:25:40;;;;;;;2.80;2.60;;;;;;;26.14;41.99;95809.58;1784905;80;21031;-66
2022/08/03 08:28:07;;;;;;;3.35;2.25;;;;;;;26.29;40.79;95811.59;1784987;80;20995;-66
2022/08/03 08:30:34;;;;;;;2.70;2.50;;;;;;;26.26;39.85;95803.22;1784611;80;21011;-66
2022/08/03 08:33:01;;;;;;;3.27;2.80;;;;;;;26.40;40.59;95799.92;1784828;80;20990;-66
2022/08/03 08:35:27;;;;;;;3.37;2.85;;;;;;;26.55;40.92;95810.42;1784983;80;21456;-66
2022/08/03 08:37:54;;;;;;;3.20;2.45;;;;;;;26.70;40.25;95806.99;1784808;80;21002;-66
2022/08/03 08:40:22;;;;;;;2.85;2.65;;;;;;;26.68;38.73;95810.81;1784710;80;20955;-66
2022/08/03 08:42:49;;;;;;;2.75;2.55;;;;;;;26.75;40.16;95810.20;1785447;80;21066;-66
2022/08/03 08:45:17;;;;;;;2.87;2.60;;;;;;;26.82;38.84;95811.94;1784678;80;21027;-66
2022/08/03 08:47:47;;;;;;;2.67;2.47;;;;;;;26.92;38.90;95816.13;1784739;80;21074;-66
2022/08/03 08:50:19;;;;;;;3.17;2.62;;;;;;;27.00;38.86;95815.00;1785026;80;20990;-66
2022/08/03 08:52:48;;;;;;;3.85;3.10;;;;;;;26.90;38.73;95805.41;1784526;80;21067;-66
2022/08/03 08:55:21;;;;;;;5.42;3.20;;;;;;;27.07;38.95;95805.91;1784939;80;21002;-66
2022/08/03 08:58:01;;;;;;;4.92;2.77;;;;;;;27.15;38.63;95800.72;1784874;80;21503;-66
2022/08/03 09:00:29;;;;;;;3.30;2.95;;;;;;;27.31;38.82;95796.28;1784095;80;21015;-66
2022/08/03 09:02:57;;;;;;;3.80;2.90;;;;;;;27.51;38.36;95792.78;1784966;80;20981;-66
2022/08/03 09:05:24;;;;;;;5.80;2.80;;;;;;;27.60;38.71;95797.95;1784972;80;21460;-66
2022/08/03 09:07:52;;;;;;;5.12;3.05;;;;;;;27.75;38.79;95801.23;1784528;80;21568;-66
2022/08/03 09:10:20;;;;;;;3.10;2.70;;;;;;;27.71;37.44;95787.06;1784868;80;20983;-66
2022/08/03 09:12:50;;;;;;;4.67;2.50;;;;;;;27.81;38.69;95791.22;1785018;80;21038;-66
2022/08/03 09:15:26;;;;;;;3.22;2.90;;;;;;;28.02;38.06;95796.69;1784804;80;21007;-66
2022/08/03 09:17:56;;;;;;;4.17;2.42;;;;;;;28.09;36.58;95799.25;1784828;80;20999;-66
2022/08/03 09:20:25;;;;;;;3.85;2.83;;;;;;;28.10;35.28;95797.39;1784803;80;21007;-66
2022/08/03 09:23:09;;;;;;;3.62;2.83;;;;;;;28.25;36.38;95792.04;1784705;80;21026;-66
2022/08/03 09:25:40;;;;;;;4.20;2.60;;;;;;;28.39;35.60;95797.11;1784830;80;21007;-66
2022/08/03 09:28:11;;;;;;;3.05;2.17;;;;;;;28.63;36.34;95798.74;1784749;80;21050;-67
2022/08/03 09:30:44;;;;;;;4.47;3.12;;;;;;;28.77;35.50;95797.52;1783285;80;21058;-66
2022/08/03 09:33:15;;;;;;;3.35;1.95;;;;;;;28.79;34.07;95791.45;1785171;80;21508;-67
2022/08/03 09:35:47;;;;;;;6.15;2.35;;;;;;;28.77;34.66;95789.36;1784843;80;21014;-66
2022/08/03 09:38:27;;;;;;;4.53;2.10;;;;;;;28.55;33.58;95795.34;1784918;80;21031;-66
2022/08/03 09:40:55;;;;;;;5.00;2.30;;;;;;;28.02;34.95;95796.69;1784798;80;21074;-66
2022/08/03 09:43:24;;;;;;;4.20;2.12;;;;;;;27.60;35.87;95794.74;1784592;80;21066;-66
2022/08/03 09:45:54;;;;;;;2.62;2.40;;;;;;;27.30;36.36;95794.58;1785033;80;21457;-66
2022/08/03 09:48:28;;;;;;;2.45;1.98;;;;;;;26.98;36.71;95800.72;1782074;80;21023;-66
2022/08/03 09:50:59;;;;;;;2.37;2.05;;;;;;;26.77;37.66;95797.91;1784846;80;20975;-66
2022/08/03 09:53:27;;;;;;;2.95;2.00;;;;;;;26.63;38.06;95796.78;1783456;80;21576;-66
2022/08/03 09:55:59;;;;;;;3.05;2.22;;;;;;;27.06;38.12;95783.35;1784632;80;21025;-66
2022/08/03 09:58:29;;;;;;;2.47;1.90;;;;;;;27.62;37.48;95790.06;1784804;80;21015;-66
2022/08/03 10:01:00;;;;;;;4.28;2.22;;;;;;;28.12;35.69;95789.48;1784860;80;21002;-66
2022/08/03 10:03:30;;;;;;;4.12;2.52;;;;;;;28.47;33.90;95784.27;1784593;80;21003;-66
2022/08/03 10:05:57;;;;;;;5.42;2.27;;;;;;;28.77;35.52;95784.78;1784921;80;21007;-66
2022/08/03 10:08:24;;;;;;;4.47;2.42;;;;;;;29.15;35.84;95781.90;1779547;80;21035;-67
2022/08/03 10:10:57;;;;;;;21.77;12.30;;;;;;;29.42;34.58;95781.27;1779375;81;21038;-66
2022/08/03 10:13:23;;;;;;;5.47;3.80;;;;;;;29.51;34.37;95779.59;1779799;80;21023;-66
2022/08/03 10:15:50;;;;;;;7.10;4.62;;;;;;;29.65;31.75;95781.02;1779553;81;21003;-67
2022/08/03 10:18:17;;;;;;;3.12;2.83;;;;;;;29.55;33.95;95773.70;1779396;80;21003;-67
2022/08/03 10:20:52;;;;;;;2.65;2.30;;;;;;;29.34;33.50;95779.25;1779564;80;21489;-66
2022/08/03 10:23:20;;;;;;;2.47;2.27;;;;;;;29.06;34.06;95772.73;1778705;81;21512;-66
2022/08/03 10:25:52;;;;;;;2.12;2.00;;;;;;;28.83;34.75;95785.63;1779152;81;21038;-66
2022/08/03 10:28:20;;;;;;;2.22;2.02;;;;;;;29.12;35.22;95774.89;1779305;80;21018;-67
2022/08/03 10:30:52;;;;;;;2.65;2.45;;;;;;;29.52;33.87;95780.78;1779378;81;21003;-66
2022/08/03 10:33:21;;;;;;;;;;;;;;;29.88;33.27;95777.05;1782148;80;21548;-66
2022/08/03 10:35:53;;;;;;;4.25;3.15;;;;;;;29.64;32.16;95782.03;1779482;80;20401;-66
2022/08/03 10:38:45;;;;;;;2.72;2.35;;;;;;;29.20;32.58;95777.41;1779380;81;21022;-67
2022/08/03 10:41:13;;;;;;;2.52;2.33;;;;;;;29.39;33.59;95772.04;1745558;81;21085;-66
2022/08/03 10:43:48;;;;;;;5.80;2.47;;;;;;;29.81;33.08;95769.13;1779184;81;21083;-67
2022/08/03 10:46:19;;;;;;;57.67;35.60;;;;;;;30.20;33.33;95770.47;1779321;80;21029;-66
2022/08/03 10:48:47;;;;;;;19.00;12.25;;;;;;;30.56;31.42;95768.00;1779171;81;20959;-66
2022/08/03 10:51:15;;;;;;;4.33;3.50;;;;;;;30.66;30.53;95767.46;1779442;80;21014;-66
2022/08/03 10:53:43;;;;;;;6.55;3.50;;;;;;;30.87;31.15;95768.66;1779461;80;21501;-66
2022/08/03 10:59:49;;;;;;;5.58;1.80;;;;;;;31.09;28.85;95758.38;1779029;81;21023;-66
2022/08/03 11:02:16;;;;;;;2.22;2.00;;;;;;;31.37;28.41;95760.59;1779485;81;21094;-66
2022/08/03 11:04:44;;;;;;;2.25;2.02;;;;;;;31.36;29.19;95761.61;1779145;81;21146;-66
2022/08/03 11:07:23;;;;;;;3.98;1.75;;;;;;;30.89;28.65;95765.77;1779255;81;21071;-66
2022/08/03 11:09:53;;;;;;;2.30;2.10;;;;;;;30.43;29.88;95764.73;1779065;80;21094;-66
2022/08/03 11:12:30;;;;;;;2.17;2.08;;;;;;;30.31;29.97;95766.75;1779580;80;20991;-66
2022/08/03 11:15:05;;;;;;;2.90;1.92;;;;;;;30.09;29.72;95771.48;1779403;81;20979;-66
2022/08/03 11:17:32;;;;;;;1.90;1.80;;;;;;;29.69;30.29;95763.47;1777962;81;20984;-66
2022/08/03 11:19:59;;;;;;;2.62;2.12;;;;;;;29.30;30.60;95771.51;1779464;80;20991;-66
2022/08/03 11:22:31;;;;;;;1.95;1.85;;;;;;;28.97;31.74;95772.16;1779226;81;21027;-66
2022/08/03 11:24:58;;;;;;;3.15;2.20;;;;;;;28.75;32.22;95770.98;1769742;81;21015;-66
2022/08/03 11:27:32;;;;;;;3.37;2.08;;;;;;;28.54;32.74;95769.67;1779396;80;20971;-66
2022/08/03 11:30:04;;;;;;;4.05;2.00;;;;;;;28.33;33.53;95774.59;1751571;81;21007;-66
2022/08/03 11:32:42;;;;;;;2.10;2.00;;;;;;;28.27;33.88;95765.61;1779581;80;21026;-66
2022/08/03 11:35:29;;;;;;;5.00;2.12;;;;;;;28.78;32.89;95756.66;1779520;81;20967;-66
2022/08/03 11:38:06;;;;;;;2.98;2.55;;;;;;;29.34;31.70;95758.01;1779474;80;21006;-66
2022/08/03 11:40:45;;;;;;;1.95;1.85;;;;;;;29.86;30.94;95739.64;1779648;80;20959;-66
2022/08/03 11:43:34;;;;;;;2.22;2.02;;;;;;;30.10;29.76;95735.61;1779558;80;21003;-66
2022/08/03 11:46:07;;;;;;;2.08;1.90;;;;;;;30.44;28.19;95735.98;1779110;81;21023;-66
2022/08/03 11:48:45;;;;;;;1.80;1.70;;;;;;;30.86;29.67;95739.69;1779774;80;21476;-66
2022/08/03 11:51:28;;;;;;;3.30;1.60;;;;;;;31.25;26.57;95730.82;1778335;81;21477;-66
2022/08/03 11:53:59;;;;;;;1.90;1.80;;;;;;;31.46;26.07;95722.39;1779401;80;21002;-66
2022/08/03 11:56:26;;;;;;;2.50;1.90;;;;;;;31.04;27.37;95728.33;1751291;81;21002;-66